ADDS METAR Data INFO
IDs: Format: Raw Decoded Include TAF

Data at: 2225 UTC 22 Aug 2017

KGZN 222200Z AUTO 13009KT 10SM FEW070 35/17 A3003 RMK AO2
KGZN 222140Z AUTO 15007KT 10SM SCT070 34/17 A3003 RMK AO2
KGZN 222120Z AUTO 15009G15KT 10SM CLR 34/17 A3004 RMK AO2
KGZN 222100Z AUTO VRB06G12KT 10SM FEW070 34/17 A3005 RMK AO2
KGZN 222040Z AUTO 18008G14KT 10SM CLR 35/17 A3005 RMK AO2
KGZN 222020Z AUTO 12008G14KT 10SM FEW065 35/17 A3007 RMK AO2
KGZN 222000Z AUTO 12005G10KT 10SM FEW065 35/18 A3008 RMK AO2
KGZN 221940Z AUTO VRB06G13KT 10SM FEW060 35/18 A3009 RMK AO2
KGZN 221920Z AUTO VRB03KT 10SM FEW060 34/18 A3009 RMK AO2
KGZN 221900Z AUTO VRB03G13KT 10SM FEW055 33/18 A3010 RMK AO2
KGZN 221840Z AUTO 00000KT 10SM FEW055 33/20 A3011 RMK AO2
KGZN 221820Z AUTO VRB04KT 10SM FEW055 FEW065 33/20 A3011 RMK AO2
KGZN 221800Z AUTO 00000KT 10SM FEW065 FEW075 32/19 A3012 RMK AO2
KGZN 221740Z AUTO 15005KT 10SM CLR 33/19 A3013 RMK AO2
KGZN 221720Z AUTO VRB04KT 10SM CLR 32/20 A3013 RMK AO2
KGZN 221700Z AUTO 21007KT 10SM CLR 32/20 A3013 RMK AO2
KGZN 221640Z AUTO 17007KT 10SM CLR 31/20 A3013 RMK AO2
KGZN 221620Z AUTO VRB03G10KT 10SM CLR 31/21 A3014 RMK AO2
KGZN 221600Z AUTO 23008KT 10SM CLR 30/20 A3013 RMK AO2
KGZN 221540Z AUTO 21007KT 10SM CLR 30/20 A3013 RMK AO2
KGZN 221520Z AUTO 24008KT 10SM CLR 29/20 A3012 RMK AO2
KGZN 221500Z AUTO 21008KT 10SM CLR 29/20 A3012 RMK AO2
KGZN 221440Z AUTO 24010G16KT 10SM CLR 28/20 A3011 RMK AO2
KGZN 221420Z AUTO 23009KT 10SM CLR 28/21 A3012 RMK AO2
KGZN 221400Z AUTO 22010KT 10SM CLR 27/20 A3012 RMK AO2
KGZN 221340Z AUTO 20006KT 10SM CLR 26/20 A3012 RMK AO2
KGZN 221320Z AUTO 22006KT 10SM CLR 24/20 A3010 RMK AO2
KGZN 221300Z AUTO 00000KT 10SM CLR 24/20 A3010 RMK AO2
KGZN 221240Z AUTO 18004KT 10SM CLR 22/20 A3010 RMK AO2
KGZN 221220Z AUTO 17005KT 10SM CLR 22/20 A3009 RMK AO2
KGZN 221200Z AUTO 20005KT 10SM CLR 23/20 A3009 RMK AO2
KGZN 221140Z AUTO 20006KT 10SM CLR 23/20 A3008 RMK AO2
KGZN 221120Z AUTO 21007KT 10SM CLR 23/20 A3008 RMK AO2
KGZN 221100Z AUTO 20006KT 10SM CLR 23/20 A3008 RMK AO2
KGZN 221040Z AUTO 19005KT 10SM CLR 23/19 A3008 RMK AO2
KGZN 221020Z AUTO 18007KT 10SM CLR 22/19 A3007 RMK AO2
KGZN 221000Z AUTO 18006KT 10SM CLR 23/19 A3007 RMK AO2
KGZN 220940Z AUTO 18008KT 10SM CLR 23/19 A3007 RMK AO2
KGZN 220920Z AUTO 18006KT 10SM CLR 23/19 A3008 RMK AO2
KGZN 220900Z AUTO 18008KT 10SM CLR 23/19 A3008 RMK AO2
KGZN 220840Z AUTO 16008KT 10SM CLR 23/18 A3009 RMK AO2
KGZN 220820Z AUTO 16008KT 10SM CLR 23/18 A3009 RMK AO2
KGZN 220800Z AUTO 17007KT 10SM CLR 22/18 A3009 RMK AO2
KGZN 220740Z AUTO 18006KT 10SM CLR 22/18 A3009 RMK AO2
KGZN 220720Z AUTO 18005KT 10SM CLR 23/18 A3010 RMK AO2
KGZN 220700Z AUTO 17006KT 10SM CLR 23/18 A3010 RMK AO2
KGZN 220640Z AUTO 17007KT 10SM CLR 24/18 A3010 RMK AO2
KGZN 220620Z AUTO 16007KT 10SM CLR 24/18 A3010 RMK AO2
KGZN 220600Z AUTO 17007KT 10SM CLR 24/19 A3010 RMK AO2
KGZN 220540Z AUTO 16006KT 10SM CLR 24/19 A3010 RMK AO2
KGZN 220520Z AUTO 15006KT 10SM CLR 25/19 A3011 RMK AO2
KGZN 220500Z AUTO 15007KT 10SM CLR 25/19 A3011 RMK AO2
KGZN 220440Z AUTO 15007KT 10SM CLR 26/19 A3011 RMK AO2
KGZN 220420Z AUTO 14009KT 10SM CLR 26/19 A3011 RMK AO2
KGZN 220400Z AUTO 14009KT 10SM CLR 26/19 A3011 RMK AO2
KGZN 220340Z AUTO 14008KT 10SM CLR 26/19 A3011 RMK AO2
KGZN 220320Z AUTO 14007KT 10SM CLR 26/19 A3010 RMK AO2
KGZN 220300Z AUTO 14007KT 10SM CLR 27/19 A3009 RMK AO2
KGZN 220240Z AUTO 14007KT 10SM CLR 27/19 A3008 RMK AO2
KGZN 220220Z AUTO 14007KT 10SM CLR 27/18 A3007 RMK AO2
KGZN 220200Z AUTO 13008KT 10SM CLR 28/18 A3006 RMK AO2
KGZN 220140Z AUTO 14006KT 10SM CLR 28/18 A3006 RMK AO2
KGZN 220120Z AUTO 14005KT 10SM CLR 29/18 A3005 RMK AO2
KGZN 220100Z AUTO 14005KT 10SM CLR 30/18 A3005 RMK AO2
KGZN 220040Z AUTO 16007KT 10SM CLR 32/18 A3004 RMK AO2
KGZN 220020Z AUTO 17008KT 10SM CLR 32/18 A3004 RMK AO2
KGZN 220000Z AUTO 15009G14KT 10SM FEW070 33/17 A3004 RMK AO2
KGZN 212340Z AUTO 14010KT 10SM SCT070 34/17 A3004 RMK AO2
KGZN 212320Z AUTO 17004KT 10SM CLR 33/17 A3005 RMK AO2
KGZN 212300Z AUTO 18008G13KT 10SM FEW070 34/17 A3005 RMK AO2 LTG DSNT N AND NW
KGZN 212240Z AUTO 17010KT 10SM CLR 34/17 A3005 RMK AO2
KGZN 212220Z AUTO 20009G14KT 10SM CLR 34/17 A3006 RMK AO2
KGZN 212200Z AUTO VRB05G14KT 10SM CLR 34/16 A3006 RMK AO2
KGZN 212140Z AUTO VRB05G16KT 10SM FEW065 34/16 A3007 RMK AO2
KGZN 212120Z AUTO 18010G17KT 10SM SCT065 34/17 A3008 RMK AO2
KGZN 212100Z AUTO 20009G16KT 160V220 10SM CLR 34/18 A3008 RMK AO2
KGZN 212040Z AUTO 19007G14KT 10SM CLR 34/18 A3009 RMK AO2
KGZN 212020Z AUTO 20007G14KT 10SM CLR 34/17 A3009 RMK AO2
KGZN 212000Z AUTO 20008G13KT 10SM CLR 33/17 A3010 RMK AO2
KGZN 211940Z AUTO 16010KT 10SM CLR 33/16 A3010 RMK AO2
KGZN 211920Z AUTO 17009G15KT 10SM CLR 32/17 A3011 RMK AO2
KGZN 211900Z AUTO 18009KT 10SM CLR 32/18 A3010 RMK AO2
KGZN 211840Z AUTO 19008KT CLR 31/18 A3010 RMK AO2
KGZN 211820Z AUTO 19007G13KT 10SM CLR 31/17 A3010 RMK AO2
KGZN 211800Z AUTO 17009G14KT 10SM CLR 31/17 A3011 RMK AO2
KGZN 211740Z AUTO 18008KT 10SM CLR 31/18 A3011 RMK AO2
KGZN 211720Z AUTO 20010KT 10SM CLR 32/18 A3012 RMK AO2
KGZN 211700Z AUTO 20009G15KT 160V230 10SM CLR 32/18 A3012 RMK AO2
KGZN 211640Z AUTO 22009G15KT 10SM CLR 31/18 A3012 RMK AO2
KGZN 211620Z AUTO 20009G14KT 10SM CLR 31/18 A3012 RMK AO2
KGZN 211600Z AUTO 20010G15KT 10SM CLR 30/18 A3012 RMK AO2
KGZN 211540Z AUTO 20010KT 10SM CLR 30/19 A3013 RMK AO2
KGZN 211520Z AUTO 21014KT 10SM CLR 29/19 A3012 RMK AO2
KGZN 211500Z AUTO 20009KT 10SM CLR 28/19 A3012 RMK AO2
KGZN 211440Z AUTO 20010G15KT 10SM CLR 28/19 A3012 RMK AO2
KGZN 211420Z AUTO 20009G17KT 10SM CLR 27/19 A3011 RMK AO2
KGZN 211400Z AUTO 20009G14KT 10SM CLR 26/20 A3011 RMK AO2
KGZN 211340Z AUTO 20008G13KT 10SM CLR 25/20 A3011 RMK AO2
KGZN 211320Z AUTO 16008KT 10SM CLR 25/20 A3011 RMK AO2
KGZN 211300Z AUTO 19007KT 10SM CLR 24/20 A3009 RMK AO2
KGZN 211240Z AUTO 19007KT 160V220 10SM CLR 24/20 A3009 RMK AO2
KGZN 211220Z AUTO 18008KT 10SM CLR 23/20 A3008 RMK AO2
KGZN 211200Z AUTO 19007KT 10SM CLR 23/20 A3008 RMK AO2
KGZN 211140Z AUTO 18009KT 10SM CLR 24/20 A3008 RMK AO2
KGZN 211120Z AUTO 18009KT 10SM CLR 24/20 A3008 RMK AO2
KGZN 211100Z AUTO 18010KT 10SM CLR 24/20 A3008 RMK AO2
KGZN 211040Z AUTO 18010KT 10SM CLR 24/20 A3008 RMK AO2